Time;durP1;ratioP1;P1;durP2;ratioP2;P2;SDS_P1;SDS_P2;PMS_P1;PMS_P2;Temp;Humidity;BMP_temperature;BMP_pressure;BME280_temperature;BME280_humidity;BME280_pressure;Samples;Min_cycle;Max_cycle;Signal;HPM_P1;HPM_P2
2021/05/16 00:00:34;;;;;;;11.52;2.67;;;12.10;99.90;;;;;;4127107;28;20165;-81
2021/05/16 00:02:35;;;;;;;;;;;12.10;99.90;;;;;;4111937;28;20035;-81
2021/05/16 00:04:36;;;;;;;9.55;2.90;;;12.10;99.90;;;;;;4110829;28;19914;-81
2021/05/16 00:06:37;;;;;;;8.15;2.83;;;12.10;99.90;;;;;;4127319;28;20030;-81
2021/05/16 00:08:37;;;;;;;8.18;2.80;;;12.10;99.90;;;;;;4126998;28;20506;-81
2021/05/16 00:10:38;;;;;;;11.23;2.72;;;12.10;99.90;;;;;;4110407;28;20039;-81
2021/05/16 00:12:40;;;;;;;6.45;2.35;;;12.00;99.90;;;;;;4126729;28;20038;-81
2021/05/16 00:14:41;;;;;;;9.80;2.22;;;12.00;99.90;;;;;;4127485;28;20430;-81
2021/05/16 00:16:42;;;;;;;9.05;2.30;;;12.10;99.90;;;;;;4126555;28;20038;-81
2021/05/16 00:18:43;;;;;;;13.60;2.88;;;12.10;99.90;;;;;;4126988;28;20042;-81
2021/05/16 00:20:44;;;;;;;9.45;2.33;;;12.10;99.90;;;;;;4111289;28;20039;-81
2021/05/16 00:22:45;;;;;;;9.27;2.67;;;12.10;99.90;;;;;;4125574;28;20057;-81
2021/05/16 00:24:48;;;;;;;11.18;2.63;;;12.10;99.90;;;;;;4126905;28;20624;-81
2021/05/16 00:26:49;;;;;;;11.60;2.60;;;12.10;99.90;;;;;;4127960;28;20042;-81
2021/05/16 00:28:49;;;;;;;9.27;2.53;;;12.10;99.90;;;;;;4127178;28;20033;-81
2021/05/16 00:30:52;;;;;;;7.15;2.40;;;12.00;99.90;;;;;;4110733;28;20117;-81
2021/05/16 00:32:57;;;;;;;10.20;2.50;;;12.10;99.90;;;;;;4143754;28;20054;-81
2021/05/16 00:34:57;;;;;;;12.38;3.03;;;12.10;99.90;;;;;;4110519;28;20037;-81
2021/05/16 00:36:59;;;;;;;10.02;2.40;;;12.10;99.90;;;;;;4126484;28;20089;-81
2021/05/16 00:38:59;;;;;;;11.32;2.55;;;12.10;99.90;;;;;;4126469;28;20057;-81
2021/05/16 00:41:00;;;;;;;7.60;2.55;;;12.10;99.90;;;;;;4126864;28;20482;-81
2021/05/16 00:43:03;;;;;;;7.30;2.28;;;12.10;99.90;;;;;;4126556;28;20031;-81
2021/05/16 00:45:09;;;;;;;7.38;2.40;;;12.10;99.90;;;;;;4126848;28;20030;-81
2021/05/16 00:47:10;;;;;;;10.93;2.85;;;12.10;99.90;;;;;;4128097;28;20058;-81
2021/05/16 00:49:11;;;;;;;11.45;3.03;;;12.10;99.90;;;;;;4127284;28;20418;-81
2021/05/16 00:51:12;;;;;;;9.15;2.55;;;12.00;99.90;;;;;;4110083;28;20031;-81
2021/05/16 00:53:12;;;;;;;10.57;2.90;;;12.00;99.90;;;;;;4109962;28;20409;-81
2021/05/16 00:55:14;;;;;;;12.02;3.05;;;12.10;99.90;;;;;;4110077;28;20055;-81
2021/05/16 00:57:15;;;;;;;13.00;3.47;;;12.10;99.90;;;;;;4126755;28;20324;-81
2021/05/16 00:59:16;;;;;;;9.95;3.10;;;12.00;99.90;;;;;;4110107;28;20030;-81
2021/05/16 01:01:18;;;;;;;13.60;3.17;;;12.00;99.90;;;;;;4126867;28;20031;-81
2021/05/16 01:03:22;;;;;;;14.18;2.97;;;12.00;99.90;;;;;;4110364;28;20043;-82
2021/05/16 01:05:24;;;;;;;8.20;2.50;;;12.00;99.90;;;;;;4107323;28;20498;-81
2021/05/16 01:07:24;;;;;;;10.30;3.13;;;12.00;99.90;;;;;;4126393;28;20065;-81
2021/05/16 01:09:25;;;;;;;13.55;2.80;;;12.00;99.90;;;;;;4125904;28;20042;-81
2021/05/16 01:11:29;;;;;;;8.68;2.88;;;12.00;99.90;;;;;;4126259;28;20487;-81
2021/05/16 01:13:30;;;;;;;11.52;3.22;;;12.00;99.90;;;;;;4109583;28;20043;-81
2021/05/16 01:15:33;;;;;;;12.50;3.42;;;12.00;99.90;;;;;;4127436;28;20042;-81
2021/05/16 01:17:33;;;;;;;11.40;3.10;;;11.90;99.90;;;;;;4125972;28;20039;-81
2021/05/16 01:19:34;;;;;;;9.77;3.20;;;12.00;99.90;;;;;;4126471;28;20037;-81
2021/05/16 01:21:35;;;;;;;9.43;2.95;;;12.00;99.90;;;;;;4126079;28;20034;-81
2021/05/16 01:23:46;;;;;;;14.10;3.08;;;12.00;99.90;;;;;;4126147;28;20038;-82
2021/05/16 01:25:48;;;;;;;11.60;3.53;;;12.00;99.90;;;;;;4127436;28;20030;-81
2021/05/16 01:27:49;;;;;;;14.48;3.45;;;12.00;99.90;;;;;;4125632;28;20129;-81
2021/05/16 01:29:50;;;;;;;15.20;3.58;;;11.90;99.90;;;;;;4124733;28;20130;-82
2021/05/16 01:31:50;;;;;;;14.48;3.45;;;11.90;99.90;;;;;;4126797;28;20035;-81
2021/05/16 01:33:52;;;;;;;12.15;3.50;;;11.90;99.90;;;;;;4125084;28;20027;-82
2021/05/16 01:35:53;;;;;;;12.68;3.50;;;11.90;99.90;;;;;;4104636;28;20400;-81
2021/05/16 01:37:53;;;;;;;13.02;3.85;;;12.00;99.90;;;;;;4105278;28;20045;-81
2021/05/16 01:39:54;;;;;;;12.75;3.05;;;12.00;99.90;;;;;;4104693;28;20031;-81
2021/05/16 01:41:55;;;;;;;16.08;3.38;;;11.90;99.90;;;;;;4122207;28;20109;-81
2021/05/16 01:43:57;;;;;;;14.40;3.42;;;11.90;99.90;;;;;;4106752;28;20046;-81
2021/05/16 01:45:58;;;;;;;13.07;4.00;;;11.90;99.90;;;;;;4136097;28;20070;-81
2021/05/16 01:47:59;;;;;;;9.43;2.90;;;11.90;99.90;;;;;;4138090;28;20083;-81
2021/05/16 01:50:07;;;;;;;14.52;3.45;;;11.90;99.90;;;;;;4107950;28;20523;-81
2021/05/16 01:52:10;;;;;;;12.90;2.90;;;11.90;99.90;;;;;;4120001;28;20030;-81
2021/05/16 01:54:10;;;;;;;13.02;3.45;;;12.00;99.90;;;;;;4124734;28;20100;-81
2021/05/16 01:56:26;;;;;;;15.52;3.50;;;12.00;99.90;;;;;;4118689;28;20146;-81
2021/05/16 01:58:27;;;;;;;11.70;3.45;;;12.00;99.90;;;;;;4140990;28;20573;-82
2021/05/16 02:00:32;;;;;;;10.20;3.53;;;12.00;99.90;;;;;;4131780;28;20037;-81
2021/05/16 02:02:33;;;;;;;14.00;3.22;;;12.00;99.90;;;;;;4122813;28;20089;-81
2021/05/16 02:04:34;;;;;;;11.30;3.25;;;12.00;99.90;;;;;;4124891;28;20030;-81
2021/05/16 02:06:35;;;;;;;13.10;3.30;;;12.00;99.90;;;;;;4104707;28;20030;-81
2021/05/16 02:08:36;;;;;;;9.95;2.83;;;12.00;99.90;;;;;;4116207;28;20038;-81
2021/05/16 02:10:37;;;;;;;10.02;3.10;;;12.00;99.90;;;;;;4121255;28;20072;-82
2021/05/16 02:12:37;;;;;;;21.55;3.92;;;12.00;99.90;;;;;;4125021;28;20445;-82
2021/05/16 02:14:38;;;;;;;13.77;3.30;;;12.00;99.90;;;;;;4106145;28;20035;-82
2021/05/16 02:16:40;;;;;;;10.68;2.83;;;12.00;99.90;;;;;;4102753;28;20088;-82
2021/05/16 02:18:40;;;;;;;12.00;2.93;;;11.90;99.90;;;;;;4119793;28;20398;-82
2021/05/16 02:20:41;;;;;;;14.18;3.17;;;11.90;99.90;;;;;;4119900;28;20027;-81
2021/05/16 02:22:42;;;;;;;13.02;2.97;;;12.00;99.90;;;;;;4106207;28;20026;-82
2021/05/16 02:24:44;;;;;;;14.30;3.40;;;11.90;99.90;;;;;;4122030;28;20035;-82
2021/05/16 02:26:46;;;;;;;11.35;3.05;;;11.90;99.90;;;;;;4118711;28;20023;-81
2021/05/16 02:28:46;;;;;;;10.82;2.63;;;12.00;99.90;;;;;;4118872;28;20030;-82
2021/05/16 02:30:48;;;;;;;11.00;2.50;;;11.90;99.90;;;;;;4120295;28;20503;-82
2021/05/16 02:32:50;;;;;;;11.52;2.83;;;11.90;99.90;;;;;;4119718;28;20022;-82
2021/05/16 02:34:51;;;;;;;18.38;3.97;;;11.90;99.90;;;;;;4122785;28;20042;-82
2021/05/16 02:36:51;;;;;;;16.75;3.85;;;11.90;99.90;;;;;;4117724;28;20041;-82
2021/05/16 02:38:53;;;;;;;20.58;4.05;;;11.90;99.90;;;;;;4119211;28;20383;-82
2021/05/16 02:40:53;;;;;;;15.70;3.40;;;11.90;99.90;;;;;;4117047;28;20038;-82
2021/05/16 02:42:54;;;;;;;13.27;3.40;;;11.80;99.90;;;;;;4104783;28;20507;-82
2021/05/16 02:44:55;;;;;;;14.07;3.50;;;11.70;99.90;;;;;;4122750;28;20077;-82
2021/05/16 02:46:56;;;;;;;12.45;3.28;;;11.80;99.90;;;;;;4125035;28;20027;-82
2021/05/16 02:48:57;;;;;;;10.45;3.28;;;11.80;99.90;;;;;;4104749;28;20038;-82
2021/05/16 02:50:57;;;;;;;16.25;3.15;;;11.80;99.90;;;;;;4122004;28;20034;-82
2021/05/16 02:52:58;;;;;;;10.35;2.97;;;11.70;99.90;;;;;;4122066;28;20050;-82
2021/05/16 02:54:58;;;;;;;15.25;3.03;;;11.70;99.90;;;;;;4122621;28;20113;-82
2021/05/16 02:56:59;;;;;;;15.75;3.05;;;11.70;99.90;;;;;;4122031;28;20034;-81
2021/05/16 02:59:00;;;;;;;12.95;3.17;;;11.70;99.90;;;;;;4106578;28;20034;-82
2021/05/16 03:01:01;;;;;;;12.70;3.08;;;11.70;99.90;;;;;;4105196;28;20027;-81
2021/05/16 03:03:02;;;;;;;8.52;2.78;;;11.70;99.90;;;;;;4107005;28;20034;-82
2021/05/16 03:05:03;;;;;;;13.18;3.22;;;11.70;99.90;;;;;;4123361;28;20035;-82
2021/05/16 03:07:04;;;;;;;13.57;3.13;;;11.80;99.90;;;;;;4104717;28;20427;-82
2021/05/16 03:09:05;;;;;;;9.07;2.63;;;11.70;99.90;;;;;;4104486;28;20317;-81
2021/05/16 03:11:06;;;;;;;10.73;2.63;;;11.70;99.90;;;;;;4116930;28;20042;-82
2021/05/16 03:13:07;;;;;;;11.57;2.97;;;11.70;99.90;;;;;;4103830;28;20043;-81
2021/05/16 03:15:08;;;;;;;15.95;3.88;;;11.70;99.90;;;;;;4103018;28;20038;-81
2021/05/16 03:17:09;;;;;;;5.93;2.22;;;11.70;99.90;;;;;;4106039;28;20043;-82
2021/05/16 03:19:09;;;;;;;9.73;2.67;;;11.80;99.90;;;;;;4104608;28;20128;-82
2021/05/16 03:21:10;;;;;;;11.82;3.35;;;11.80;99.90;;;;;;4103079;28;20050;-82
2021/05/16 03:23:11;;;;;;;10.13;3.05;;;11.80;99.90;;;;;;4113836;28;20042;-82
2021/05/16 03:25:13;;;;;;;12.35;2.85;;;11.80;99.90;;;;;;4119065;28;20485;-82
2021/05/16 03:27:13;;;;;;;12.57;3.10;;;11.80;99.90;;;;;;4120827;28;20050;-81
2021/05/16 03:29:14;;;;;;;12.40;2.72;;;11.80;99.90;;;;;;4122156;28;20042;-82
2021/05/16 03:31:15;;;;;;;10.75;2.67;;;11.80;99.90;;;;;;4104911;28;20031;-81
2021/05/16 03:33:15;;;;;;;10.35;2.83;;;11.70;99.90;;;;;;4138840;28;20349;-81
2021/05/16 03:35:16;;;;;;;13.55;3.50;;;11.70;99.90;;;;;;4121057;28;20042;-82
2021/05/16 03:37:18;;;;;;;11.90;2.70;;;11.70;99.90;;;;;;4109108;28;20392;-82
2021/05/16 03:39:19;;;;;;;10.85;2.92;;;11.60;99.90;;;;;;4119318;28;20414;-82
2021/05/16 03:41:20;;;;;;;9.00;2.95;;;11.60;99.90;;;;;;4121022;28;20388;-82
2021/05/16 03:43:22;;;;;;;11.50;2.95;;;11.60;99.90;;;;;;4121077;28;20062;-82
2021/05/16 03:45:23;;;;;;;9.60;2.28;;;11.50;99.90;;;;;;4118016;28;20561;-82
2021/05/16 03:47:24;;;;;;;13.38;2.80;;;11.50;99.90;;;;;;4121942;28;20121;-82
2021/05/16 03:49:24;;;;;;;10.27;2.78;;;11.50;99.90;;;;;;4106087;28;20031;-82
2021/05/16 03:51:25;;;;;;;12.70;2.72;;;11.40;99.90;;;;;;4134989;28;20045;-81
2021/05/16 03:53:26;;;;;;;8.18;2.15;;;11.40;99.90;;;;;;4122528;28;20035;-82
2021/05/16 03:55:27;;;;;;;10.38;2.42;;;11.40;99.90;;;;;;4118115;28;20392;-82
2021/05/16 03:57:27;;;;;;;13.05;3.08;;;11.40;99.90;;;;;;4105131;28;21327;-81
2021/05/16 03:59:28;;;;;;;12.10;2.95;;;11.30;99.90;;;;;;4102363;28;20761;-81
2021/05/16 04:01:29;;;;;;;10.07;2.85;;;11.40;99.90;;;;;;4117938;28;20044;-81
2021/05/16 04:03:29;;;;;;;6.80;2.05;;;11.30;99.90;;;;;;4117462;28;20301;-82
2021/05/16 04:05:30;;;;;;;10.30;2.45;;;11.30;99.90;;;;;;4106313;28;20042;-82
2021/05/16 04:07:31;;;;;;;8.15;2.38;;;11.30;99.90;;;;;;4108019;28;20045;-82
2021/05/16 04:09:32;;;;;;;8.63;2.42;;;11.30;99.90;;;;;;4126172;28;20058;-82
2021/05/16 04:11:33;;;;;;;8.32;2.40;;;11.30;99.90;;;;;;4110428;28;20034;-82
2021/05/16 04:13:33;;;;;;;6.90;2.20;;;11.30;99.90;;;;;;4125500;28;20030;-82
2021/05/16 04:15:34;;;;;;;7.78;2.40;;;11.30;99.90;;;;;;4125581;28;20427;-82
2021/05/16 04:17:35;;;;;;;9.07;2.28;;;11.30;99.90;;;;;;4127381;28;20034;-82
2021/05/16 04:19:35;;;;;;;11.05;2.58;;;11.40;99.90;;;;;;4125981;28;20609;-82
2021/05/16 04:21:36;;;;;;;10.48;3.13;;;11.30;99.90;;;;;;4125375;28;20121;-82
2021/05/16 04:23:38;;;;;;;10.20;2.22;;;11.40;99.90;;;;;;4125676;28;20044;-82
2021/05/16 04:25:38;;;;;;;8.73;2.40;;;11.40;99.90;;;;;;4125326;28;20038;-82
2021/05/16 04:27:39;;;;;;;6.55;1.85;;;11.40;99.90;;;;;;4127813;28;20080;-82
2021/05/16 04:29:39;;;;;;;7.47;1.77;;;11.40;99.90;;;;;;4111659;28;20041;-82
2021/05/16 04:31:40;;;;;;;9.00;2.35;;;11.30;99.90;;;;;;4128081;28;20462;-83
2021/05/16 04:33:41;;;;;;;8.60;2.30;;;11.40;99.90;;;;;;4127366;28;20423;-82
2021/05/16 04:35:42;;;;;;;6.10;1.60;;;11.40;99.90;;;;;;4128128;28;20042;-82
2021/05/16 04:37:42;;;;;;;5.13;1.70;;;11.40;99.90;;;;;;4127176;28;20038;-82
2021/05/16 04:39:43;;;;;;;8.38;2.30;;;11.40;99.90;;;;;;4127786;28;21340;-82
2021/05/16 04:41:44;;;;;;;16.65;3.45;;;11.40;99.90;;;;;;4112426;28;20075;-82
2021/05/16 04:43:45;;;;;;;7.47;2.20;;;11.40;99.90;;;;;;4128249;28;20034;-82
2021/05/16 04:45:46;;;;;;;6.78;1.83;;;11.40;99.90;;;;;;4129177;28;20037;-82
2021/05/16 04:47:46;;;;;;;6.55;1.90;;;11.40;99.90;;;;;;4111505;28;20374;-82
2021/05/16 04:49:47;;;;;;;6.93;2.05;;;11.40;99.90;;;;;;4111200;28;20030;-82
2021/05/16 04:51:47;;;;;;;8.90;2.67;;;11.40;99.90;;;;;;4111383;28;20034;-82
2021/05/16 04:53:48;;;;;;;9.13;2.42;;;11.40;99.90;;;;;;4111886;28;20439;-82
2021/05/16 04:55:50;;;;;;;5.35;1.80;;;11.40;99.90;;;;;;4128212;28;20034;-82
2021/05/16 04:57:50;;;;;;;10.90;2.33;;;11.50;99.90;;;;;;4126840;28;20038;-82
2021/05/16 04:59:52;;;;;;;10.55;2.50;;;11.40;99.90;;;;;;4126449;28;20683;-82
2021/05/16 05:01:53;;;;;;;7.53;2.40;;;11.50;99.90;;;;;;4127033;28;20073;-82
2021/05/16 05:03:55;;;;;;;9.40;2.42;;;11.50;99.90;;;;;;4127299;28;20026;-82
2021/05/16 05:05:55;;;;;;;7.85;2.47;;;11.50;99.90;;;;;;4127738;28;20067;-81
2021/05/16 05:07:56;;;;;;;9.50;2.45;;;11.50;99.90;;;;;;4127469;28;20026;-82
2021/05/16 05:09:57;;;;;;;9.05;2.47;;;11.50;99.90;;;;;;4127792;28;20026;-82
2021/05/16 05:11:57;;;;;;;8.25;2.38;;;11.60;99.90;;;;;;4128099;28;20611;-81
2021/05/16 05:13:58;;;;;;;14.77;2.67;;;11.60;99.90;;;;;;4127586;28;20030;-82
2021/05/16 05:15:59;;;;;;;11.18;3.20;;;11.60;99.90;;;;;;4127731;28;20482;-82
2021/05/16 05:17:59;;;;;;;13.30;3.20;;;11.60;99.90;;;;;;4127239;28;20113;-82
2021/05/16 05:20:00;;;;;;;10.52;2.65;;;11.60;99.90;;;;;;4111561;28;20121;-82
2021/05/16 05:22:00;;;;;;;15.27;3.13;;;11.60;99.90;;;;;;4127248;28;20031;-82
2021/05/16 05:24:01;;;;;;;10.85;2.72;;;11.60;99.90;;;;;;4116571;28;20472;-82
2021/05/16 05:26:02;;;;;;;9.43;2.40;;;11.60;99.90;;;;;;4107652;28;20101;-82
2021/05/16 05:28:03;;;;;;;12.57;2.72;;;11.70;99.90;;;;;;4125785;28;20395;-82
2021/05/16 05:30:05;;;;;;;13.93;3.30;;;11.70;99.90;;;;;;4110890;28;20035;-82
2021/05/16 05:32:06;;;;;;;10.05;3.05;;;11.70;99.90;;;;;;4128016;28;20126;-82
2021/05/16 05:34:06;;;;;;;9.45;2.67;;;11.70;99.90;;;;;;4112275;28;20483;-82
2021/05/16 05:36:07;;;;;;;11.00;2.80;;;11.80;99.90;;;;;;4100194;28;20073;-82
2021/05/16 05:38:08;;;;;;;10.38;3.03;;;11.80;99.90;;;;;;4115757;28;20035;-82
2021/05/16 05:40:09;;;;;;;20.75;3.90;;;11.80;99.90;;;;;;4117302;28;20042;-82
2021/05/16 05:42:10;;;;;;;16.42;3.95;;;11.80;99.90;;;;;;4122955;28;20596;-82
2021/05/16 05:44:11;;;;;;;10.32;3.33;;;11.80;99.90;;;;;;4121630;28;20197;-82
2021/05/16 05:46:12;;;;;;;12.27;3.45;;;11.80;99.90;;;;;;4104749;28;20105;-82
2021/05/16 05:48:12;;;;;;;12.40;3.67;;;11.80;99.90;;;;;;4125683;28;20058;-82
2021/05/16 05:50:13;;;;;;;13.38;3.00;;;11.90;99.90;;;;;;4104260;28;20458;-82
2021/05/16 05:52:14;;;;;;;13.13;3.13;;;12.00;99.90;;;;;;4124601;28;20050;-82
2021/05/16 05:54:14;;;;;;;15.73;3.20;;;12.00;99.90;;;;;;4120276;28;20038;-82
2021/05/16 05:56:15;;;;;;;15.48;3.65;;;12.00;99.90;;;;;;4104625;28;20027;-82
2021/05/16 05:58:16;;;;;;;14.95;3.97;;;12.00;99.90;;;;;;4125152;28;20372;-82
2021/05/16 06:00:17;;;;;;;18.45;4.25;;;12.10;99.90;;;;;;4121366;28;20023;-82
2021/05/16 06:02:18;;;;;;;13.73;3.72;;;12.10;99.90;;;;;;4123016;28;20106;-82
2021/05/16 06:04:19;;;;;;;10.45;2.95;;;12.10;99.90;;;;;;4126633;28;20035;-82
2021/05/16 06:06:20;;;;;;;12.50;3.10;;;12.20;99.90;;;;;;4122235;28;20152;-82
2021/05/16 06:08:21;;;;;;;13.00;3.25;;;12.20;99.90;;;;;;4127607;28;20026;-82
2021/05/16 06:10:23;;;;;;;15.98;3.50;;;12.20;99.90;;;;;;4127265;28;20042;-82
2021/05/16 06:12:25;;;;;;;7.90;2.60;;;12.20;99.90;;;;;;4126034;28;20051;-82
2021/05/16 06:14:26;;;;;;;19.17;3.93;;;12.20;99.90;;;;;;4128397;28;20361;-82
2021/05/16 06:16:27;;;;;;;12.98;3.45;;;12.20;99.90;;;;;;4116691;28;20258;-83
2021/05/16 06:18:27;;;;;;;11.02;2.85;;;12.20;99.90;;;;;;4124468;28;20121;-82
2021/05/16 06:20:46;;;;;;;11.55;2.97;;;12.20;99.90;;;;;;4127728;28;20049;-82
2021/05/16 06:23:08;;;;;;;10.75;2.97;;;12.20;99.90;;;;;;4119902;28;20034;-82
2021/05/16 06:25:09;;;;;;;18.10;3.92;;;12.20;99.90;;;;;;4117950;28;20026;-82
2021/05/16 06:27:10;;;;;;;20.48;3.78;;;12.10;99.90;;;;;;4119623;28;20050;-82
2021/05/16 06:29:12;;;;;;;12.40;3.35;;;12.10;99.90;;;;;;4119312;28;20054;-82
2021/05/16 06:31:16;;;;;;;13.30;3.17;;;12.10;99.90;;;;;;4117209;28;20067;-82
2021/05/16 06:33:16;;;;;;;17.35;3.45;;;12.10;99.90;;;;;;4120600;28;20743;-78
2021/05/16 06:35:17;;;;;;;15.15;3.33;;;12.20;99.90;;;;;;4117181;28;20033;-78
2021/05/16 06:37:18;;;;;;;14.30;3.67;;;12.20;99.90;;;;;;4116864;28;20569;-78
2021/05/16 06:39:18;;;;;;;15.23;3.88;;;12.20;99.90;;;;;;4116703;28;20447;-79
2021/05/16 06:41:19;;;;;;;16.08;3.67;;;12.20;99.90;;;;;;4113593;28;20388;-78
2021/05/16 06:43:20;;;;;;;7.68;2.88;;;12.30;99.90;;;;;;4123710;28;20050;-78
2021/05/16 06:45:21;;;;;;;14.45;3.42;;;12.30;99.90;;;;;;4120663;28;20398;-78
2021/05/16 06:47:23;;;;;;;16.92;3.33;;;12.30;99.90;;;;;;4118831;28;20035;-79
2021/05/16 06:49:24;;;;;;;15.73;3.78;;;12.30;99.90;;;;;;4114682;28;20058;-78
2021/05/16 06:51:25;;;;;;;18.80;4.22;;;12.30;99.90;;;;;;4120162;28;20035;-78
2021/05/16 06:53:25;;;;;;;13.57;3.55;;;12.40;99.90;;;;;;4114928;28;20259;-79
2021/05/16 06:55:26;;;;;;;14.15;3.42;;;12.30;99.90;;;;;;4116414;28;20046;-79
2021/05/16 06:57:27;;;;;;;12.00;3.22;;;12.40;99.90;;;;;;4117069;28;20094;-77
2021/05/16 06:59:28;;;;;;;13.85;4.20;;;12.40;99.90;;;;;;4113213;28;20049;-80
2021/05/16 07:01:29;;;;;;;17.23;3.58;;;12.50;99.90;;;;;;4114404;28;20357;-77
2021/05/16 07:03:29;;;;;;;12.70;3.38;;;12.50;99.90;;;;;;4117915;28;20458;-78
2021/05/16 07:05:30;;;;;;;17.95;3.88;;;12.50;99.90;;;;;;4120607;28;20458;-79
2021/05/16 07:07:32;;;;;;;16.67;4.10;;;12.50;99.90;;;;;;4118552;28;20415;-80
2021/05/16 07:09:32;;;;;;;18.77;4.57;;;12.50;99.90;;;;;;4116318;28;20426;-80
2021/05/16 07:11:34;;;;;;;15.90;3.92;;;12.50;99.90;;;;;;4121353;28;20042;-79
2021/05/16 07:13:35;;;;;;;17.30;3.65;;;12.40;99.90;;;;;;4118218;28;20483;-79
2021/05/16 07:15:36;;;;;;;17.25;3.60;;;12.40;99.90;;;;;;4120421;28;20181;-78
2021/05/16 07:17:37;;;;;;;12.55;3.75;;;12.50;99.90;;;;;;4120268;28;20400;-78
2021/05/16 07:19:38;;;;;;;20.25;4.22;;;12.50;99.90;;;;;;4116612;28;20094;-77
2021/05/16 07:21:39;;;;;;;17.75;4.13;;;12.50;99.90;;;;;;4117232;28;20062;-77
2021/05/16 07:23:40;;;;;;;9.23;3.20;;;12.50;99.90;;;;;;4118836;28;20041;-77
2021/05/16 07:25:41;;;;;;;11.55;3.47;;;12.60;99.90;;;;;;4117206;28;20046;-77
2021/05/16 07:27:41;;;;;;;14.93;4.13;;;12.60;99.90;;;;;;4115764;28;20129;-77
2021/05/16 07:29:42;;;;;;;10.13;3.13;;;12.60;99.90;;;;;;4117719;28;20128;-77
2021/05/16 07:31:43;;;;;;;19.55;3.95;;;12.60;99.90;;;;;;4119713;28;20101;-77
2021/05/16 07:33:44;;;;;;;11.80;3.00;;;12.60;99.90;;;;;;4121058;28;20459;-77
2021/05/16 07:35:44;;;;;;;17.35;3.88;;;12.70;99.90;;;;;;4124636;28;20034;-77
2021/05/16 07:37:46;;;;;;;10.38;3.40;;;12.70;99.90;;;;;;4125325;28;20030;-77
2021/05/16 07:39:47;;;;;;;11.93;3.30;;;12.70;99.90;;;;;;4120761;28;20027;-77
2021/05/16 07:41:47;;;;;;;12.15;2.97;;;12.80;99.90;;;;;;4115516;28;20527;-77
2021/05/16 07:43:48;;;;;;;14.18;3.65;;;12.80;99.90;;;;;;4123536;28;20057;-77
2021/05/16 07:45:49;;;;;;;19.27;3.80;;;12.80;99.90;;;;;;4113380;28;20042;-79
2021/05/16 07:47:50;;;;;;;15.75;3.50;;;12.90;99.90;;;;;;4116296;28;20038;-79
2021/05/16 07:49:51;;;;;;;10.05;2.90;;;12.90;99.90;;;;;;4117583;28;20035;-78
2021/05/16 07:51:52;;;;;;;14.40;3.17;;;13.00;99.90;;;;;;4116662;28;20464;-78
2021/05/16 07:53:55;;;;;;;16.52;3.97;;;13.00;99.90;;;;;;4119903;28;20031;-77
2021/05/16 07:55:56;;;;;;;13.70;3.28;;;13.00;99.90;;;;;;4115919;28;20034;-78
2021/05/16 07:57:57;;;;;;;12.25;3.47;;;13.10;99.90;;;;;;4118198;28;20400;-80
2021/05/16 07:59:58;;;;;;;15.75;3.95;;;13.10;99.90;;;;;;4104875;28;20027;-80
2021/05/16 08:01:59;;;;;;;15.35;3.47;;;13.10;99.90;;;;;;4124465;28;20034;-78
2021/05/16 08:03:59;;;;;;;12.13;3.05;;;13.20;99.90;;;;;;4124747;28;20031;-78
2021/05/16 08:06:00;;;;;;;18.20;3.78;;;13.30;99.90;;;;;;4120923;28;20058;-79
2021/05/16 08:08:01;;;;;;;13.90;3.67;;;13.40;99.90;;;;;;4122659;28;20211;-77
2021/05/16 08:10:03;;;;;;;18.75;3.65;;;13.40;99.90;;;;;;4125029;28;20050;-77
2021/05/16 08:12:04;;;;;;;12.00;3.80;;;13.50;99.90;;;;;;4126060;28;20026;-76
2021/05/16 08:14:06;;;;;;;13.82;3.05;;;13.50;99.90;;;;;;4126361;28;20104;-77
2021/05/16 08:16:07;;;;;;;15.95;3.67;;;13.60;99.90;;;;;;4125419;28;20796;-76
2021/05/16 08:18:10;;;;;;;13.77;3.42;;;13.70;99.90;;;;;;4126999;28;20034;-81
2021/05/16 08:20:14;;;;;;;12.75;3.08;;;13.70;99.90;;;;;;4119356;28;20039;-79
2021/05/16 08:22:17;;;;;;;12.35;3.28;;;13.80;99.90;;;;;;4121325;28;20364;-79
2021/05/16 08:24:20;;;;;;;18.80;3.92;;;13.90;99.90;;;;;;4126357;28;20035;-80
2021/05/16 08:26:22;;;;;;;17.35;3.67;;;13.90;99.90;;;;;;4128149;28;20102;-80
2021/05/16 08:28:25;;;;;;;12.60;2.92;;;14.00;99.90;;;;;;4128440;28;20137;-80
2021/05/16 08:30:28;;;;;;;8.25;2.80;;;13.90;99.90;;;;;;4125010;28;20045;-80
2021/05/16 08:32:28;;;;;;;;;;;14.00;99.90;;;;;;4121711;28;20078;-78
2021/05/16 08:34:30;;;;;;;16.85;3.60;;;13.90;99.90;;;;;;4120417;28;19925;-79
2021/05/16 08:36:32;;;;;;;14.80;3.33;;;13.90;99.90;;;;;;4127496;28;20062;-78
2021/05/16 08:38:34;;;;;;;15.32;3.35;;;13.90;99.90;;;;;;4122224;28;20049;-78
2021/05/16 08:40:35;;;;;;;9.88;3.00;;;13.90;99.90;;;;;;4122637;28;20529;-78
2021/05/16 08:42:36;;;;;;;14.57;3.00;;;13.90;99.90;;;;;;4125417;28;20031;-79
2021/05/16 08:44:37;;;;;;;10.63;2.88;;;13.90;99.90;;;;;;4125344;28;20034;-78
2021/05/16 08:46:38;;;;;;;16.92;3.15;;;13.90;99.90;;;;;;4119245;28;20050;-78
2021/05/16 08:48:39;;;;;;;10.85;2.85;;;13.80;99.90;;;;;;4123303;28;20047;-78
2021/05/16 08:50:40;;;;;;;12.95;2.97;;;13.80;99.90;;;;;;4120849;28;20030;-79
2021/05/16 08:52:41;;;;;;;12.75;3.08;;;13.80;99.90;;;;;;4120414;28;20033;-78
2021/05/16 08:54:45;;;;;;;10.80;2.70;;;13.80;99.90;;;;;;4120498;28;20592;-79
2021/05/16 08:56:47;;;;;;;12.25;3.13;;;13.80;99.90;;;;;;4111984;28;20113;-78
2021/05/16 08:58:48;;;;;;;11.65;2.95;;;13.90;99.90;;;;;;4121249;28;20048;-79
2021/05/16 09:00:49;;;;;;;11.27;3.17;;;14.00;99.90;;;;;;4125942;28;20117;-79
2021/05/16 09:03:17;;;;;;;12.35;2.92;;;14.10;99.90;;;;;;4125571;28;20027;-79
2021/05/16 09:05:24;;;;;;;16.15;3.35;;;14.30;99.90;;;;;;4125094;28;20106;-79
2021/05/16 09:07:30;;;;;;;13.48;3.67;;;14.50;99.90;;;;;;4121818;28;20117;-79
2021/05/16 09:09:33;;;;;;;12.75;3.15;;;14.60;99.90;;;;;;4125048;28;20065;-78
2021/05/16 09:11:34;;;;;;;11.55;3.13;;;14.70;99.90;;;;;;4120807;28;20121;-79
2021/05/16 09:13:44;;;;;;;9.73;2.70;;;14.80;99.90;;;;;;4122664;28;20073;-79
2021/05/16 09:16:11;;;;;;;9.48;2.75;;;14.90;99.90;;;;;;4119493;28;20327;-78
2021/05/16 09:18:12;;;;;;;12.13;3.15;;;14.90;99.90;;;;;;4124003;28;20062;-80
2021/05/16 09:20:14;;;;;;;11.88;3.30;;;15.00;99.90;;;;;;4125100;28;20310;-79
2021/05/16 09:22:35;;;;;;;9.65;2.72;;;15.10;99.90;;;;;;4123816;28;21478;-79
2021/05/16 09:24:35;;;;;;;11.90;3.15;;;15.20;99.90;;;;;;4122399;28;20050;-79
2021/05/16 09:26:50;;;;;;;12.75;3.25;;;15.20;99.90;;;;;;4124260;28;20026;-79
2021/05/16 09:28:53;;;;;;;11.10;2.75;;;15.30;99.90;;;;;;4121871;28;20364;-79
2021/05/16 09:30:54;;;;;;;11.88;2.58;;;15.40;99.90;;;;;;4121476;28;20046;-79
2021/05/16 09:32:59;;;;;;;10.38;2.72;;;15.50;99.90;;;;;;4120848;28;20033;-79
2021/05/16 09:34:59;;;;;;;11.00;2.55;;;15.60;99.90;;;;;;4122942;28;20041;-79
2021/05/16 09:37:01;;;;;;;16.55;3.25;;;15.60;99.90;;;;;;4119172;28;20042;-79
2021/05/16 09:39:14;;;;;;;11.88;2.30;;;15.80;99.90;;;;;;4122375;28;20042;-80
2021/05/16 09:41:16;;;;;;;12.15;3.05;;;15.90;99.90;;;;;;4121162;28;20125;-79
2021/05/16 09:43:26;;;;;;;10.88;3.08;;;15.90;99.90;;;;;;4126722;28;20041;-79
2021/05/16 09:45:47;;;;;;;15.98;3.40;;;15.80;99.90;;;;;;4123773;28;20121;-79
2021/05/16 09:47:47;;;;;;;11.50;3.33;;;15.90;99.90;;;;;;4121500;28;20107;-79
2021/05/16 09:50:06;;;;;;;7.50;2.17;;;15.90;99.90;;;;;;4121033;28;20031;-80
2021/05/16 09:52:15;;;;;;;13.10;3.03;;;16.00;99.90;;;;;;4119679;28;20039;-78
2021/05/16 09:54:16;;;;;;;7.35;2.70;;;16.10;99.90;;;;;;4117208;28;20069;-79
2021/05/16 09:56:21;;;;;;;10.70;3.08;;;16.20;99.90;;;;;;4120022;28;20601;-78
2021/05/16 09:58:22;;;;;;;13.00;2.78;;;16.20;99.90;;;;;;4120571;28;20084;-79
2021/05/16 10:00:22;;;;;;;11.20;2.58;;;16.20;99.90;;;;;;4119959;28;20026;-79
2021/05/16 10:02:26;;;;;;;7.95;2.60;;;16.20;99.90;;;;;;4125687;28;20026;-78
2021/05/16 10:04:27;;;;;;;9.02;2.35;;;16.20;99.90;;;;;;4123534;28;20045;-78
2021/05/16 10:06:29;;;;;;;9.13;2.90;;;16.20;99.90;;;;;;4121728;28;20030;-78
2021/05/16 10:08:32;;;;;;;8.38;2.00;;;16.30;99.90;;;;;;4120996;28;20121;-78
2021/05/16 10:10:34;;;;;;;8.00;2.50;;;16.40;99.90;;;;;;4122902;28;20043;-78
2021/05/16 10:12:39;;;;;;;10.37;2.47;;;16.40;99.90;;;;;;4120007;28;20043;-78
2021/05/16 10:14:45;;;;;;;10.70;2.97;;;16.30;99.90;;;;;;4123604;28;20097;-79
2021/05/16 10:16:48;;;;;;;9.65;2.78;;;16.20;99.90;;;;;;4119512;28;20109;-78
2021/05/16 10:18:51;;;;;;;10.15;2.50;;;16.20;99.90;;;;;;4122453;28;20137;-79
2021/05/16 10:20:54;;;;;;;6.75;1.92;;;16.20;99.90;;;;;;4121178;28;20031;-79
2021/05/16 10:22:57;;;;;;;8.27;2.17;;;16.20;99.90;;;;;;4122433;28;20234;-78
2021/05/16 10:24:58;;;;;;;;;;;16.30;99.90;;;;;;4120430;28;20046;-78
2021/05/16 10:27:23;;;;;;;7.20;2.20;;;16.40;99.90;;;;;;4119361;28;19924;-78
2021/05/16 10:29:45;;;;;;;9.55;2.35;;;16.50;99.90;;;;;;4119042;28;20037;-79